sensor_id;sensor_type;location;lat;lon;timestamp;P1;durP1;ratioP1;P2;durP2;ratioP2
60588;SDS011;46421;48.610;9.334;2023-07-20T00:01:24;8.10;;;3.00;;
60588;SDS011;46421;48.610;9.334;2023-07-20T00:03:49;10.17;;;3.07;;
60588;SDS011;46421;48.610;9.334;2023-07-20T00:06:20;9.40;;;3.30;;
60588;SDS011;46421;48.610;9.334;2023-07-20T00:08:45;9.23;;;2.90;;
60588;SDS011;46421;48.610;9.334;2023-07-20T00:11:11;10.10;;;2.97;;
60588;SDS011;46421;48.610;9.334;2023-07-20T00:13:38;7.43;;;2.45;;
60588;SDS011;46421;48.610;9.334;2023-07-20T00:16:03;5.37;;;2.20;;
60588;SDS011;46421;48.610;9.334;2023-07-20T00:18:29;5.30;;;2.03;;
60588;SDS011;46421;48.610;9.334;2023-07-20T00:20:54;7.28;;;2.28;;
60588;SDS011;46421;48.610;9.334;2023-07-20T00:23:19;8.27;;;2.17;;
60588;SDS011;46421;48.610;9.334;2023-07-20T00:25:48;8.18;;;2.95;;
60588;SDS011;46421;48.610;9.334;2023-07-20T00:28:13;10.60;;;3.20;;
60588;SDS011;46421;48.610;9.334;2023-07-20T00:30:38;9.67;;;3.40;;
60588;SDS011;46421;48.610;9.334;2023-07-20T00:33:03;11.00;;;3.77;;
60588;SDS011;46421;48.610;9.334;2023-07-20T00:35:28;6.40;;;2.43;;
60588;SDS011;46421;48.610;9.334;2023-07-20T00:37:54;5.80;;;1.87;;
60588;SDS011;46421;48.610;9.334;2023-07-20T00:40:19;7.23;;;2.07;;
60588;SDS011;46421;48.610;9.334;2023-07-20T00:42:44;5.67;;;1.43;;
60588;SDS011;46421;48.610;9.334;2023-07-20T00:45:10;4.53;;;1.20;;
60588;SDS011;46421;48.610;9.334;2023-07-20T00:47:35;3.60;;;1.40;;
60588;SDS011;46421;48.610;9.334;2023-07-20T00:50:01;3.22;;;1.52;;
60588;SDS011;46421;48.610;9.334;2023-07-20T00:52:27;3.78;;;1.20;;
60588;SDS011;46421;48.610;9.334;2023-07-20T00:54:52;3.42;;;1.20;;
60588;SDS011;46421;48.610;9.334;2023-07-20T00:57:21;3.78;;;1.15;;
60588;SDS011;46421;48.610;9.334;2023-07-20T00:59:48;6.50;;;1.42;;
60588;SDS011;46421;48.610;9.334;2023-07-20T01:02:13;4.82;;;1.50;;
60588;SDS011;46421;48.610;9.334;2023-07-20T01:04:38;3.60;;;1.20;;
60588;SDS011;46421;48.610;9.334;2023-07-20T01:07:11;4.53;;;1.57;;
60588;SDS011;46421;48.610;9.334;2023-07-20T01:09:39;7.05;;;1.60;;
60588;SDS011;46421;48.610;9.334;2023-07-20T01:12:07;3.17;;;1.35;;
60588;SDS011;46421;48.610;9.334;2023-07-20T01:16:58;4.93;;;1.33;;
60588;SDS011;46421;48.610;9.334;2023-07-20T01:19:23;3.03;;;1.30;;
60588;SDS011;46421;48.610;9.334;2023-07-20T01:27:00;3.60;;;1.20;;
60588;SDS011;46421;48.610;9.334;2023-07-20T01:29:49;5.28;;;1.70;;
60588;SDS011;46421;48.610;9.334;2023-07-20T01:32:20;5.65;;;1.50;;
60588;SDS011;46421;48.610;9.334;2023-07-20T01:34:48;3.92;;;1.30;;
60588;SDS011;46421;48.610;9.334;2023-07-20T01:37:13;3.83;;;1.50;;
60588;SDS011;46421;48.610;9.334;2023-07-20T01:39:40;5.57;;;1.38;;
60588;SDS011;46421;48.610;9.334;2023-07-20T01:42:05;3.53;;;1.25;;
60588;SDS011;46421;48.610;9.334;2023-07-20T01:44:31;4.55;;;1.60;;
60588;SDS011;46421;48.610;9.334;2023-07-20T01:46:56;5.55;;;1.75;;
60588;SDS011;46421;48.610;9.334;2023-07-20T01:49:21;4.63;;;1.27;;
60588;SDS011;46421;48.610;9.334;2023-07-20T01:51:47;4.77;;;1.50;;
60588;SDS011;46421;48.610;9.334;2023-07-20T01:54:12;3.63;;;1.47;;
60588;SDS011;46421;48.610;9.334;2023-07-20T01:56:37;4.90;;;1.60;;
60588;SDS011;46421;48.610;9.334;2023-07-20T01:59:02;4.43;;;1.35;;
60588;SDS011;46421;48.610;9.334;2023-07-20T02:01:28;3.93;;;1.60;;
60588;SDS011;46421;48.610;9.334;2023-07-20T02:03:53;3.92;;;1.55;;
60588;SDS011;46421;48.610;9.334;2023-07-20T02:06:19;3.38;;;1.40;;
60588;SDS011;46421;48.610;9.334;2023-07-20T02:08:44;3.83;;;1.47;;
60588;SDS011;46421;48.610;9.334;2023-07-20T02:11:09;3.03;;;1.33;;
60588;SDS011;46421;48.610;9.334;2023-07-20T02:13:35;2.93;;;1.10;;
60588;SDS011;46421;48.610;9.334;2023-07-20T02:16:00;3.40;;;1.20;;
60588;SDS011;46421;48.610;9.334;2023-07-20T02:18:25;4.17;;;1.43;;
60588;SDS011;46421;48.610;9.334;2023-07-20T02:20:52;4.70;;;1.30;;
60588;SDS011;46421;48.610;9.334;2023-07-20T02:23:17;5.32;;;1.40;;
60588;SDS011;46421;48.610;9.334;2023-07-20T02:25:43;5.32;;;1.63;;
60588;SDS011;46421;48.610;9.334;2023-07-20T02:28:09;3.95;;;1.23;;
60588;SDS011;46421;48.610;9.334;2023-07-20T02:30:37;4.40;;;1.60;;
60588;SDS011;46421;48.610;9.334;2023-07-20T02:33:02;4.43;;;1.48;;
60588;SDS011;46421;48.610;9.334;2023-07-20T02:35:27;5.23;;;1.37;;
60588;SDS011;46421;48.610;9.334;2023-07-20T02:37:52;5.30;;;1.53;;
60588;SDS011;46421;48.610;9.334;2023-07-20T02:40:18;4.03;;;1.48;;
60588;SDS011;46421;48.610;9.334;2023-07-20T02:42:43;3.30;;;1.13;;
60588;SDS011;46421;48.610;9.334;2023-07-20T02:45:09;5.55;;;1.65;;
60588;SDS011;46421;48.610;9.334;2023-07-20T02:47:34;4.10;;;1.20;;
60588;SDS011;46421;48.610;9.334;2023-07-20T02:49:59;3.60;;;1.47;;
60588;SDS011;46421;48.610;9.334;2023-07-20T02:52:24;3.67;;;1.40;;
60588;SDS011;46421;48.610;9.334;2023-07-20T02:54:50;4.33;;;1.20;;
60588;SDS011;46421;48.610;9.334;2023-07-20T02:57:15;4.20;;;1.40;;
60588;SDS011;46421;48.610;9.334;2023-07-20T02:59:40;3.23;;;1.20;;
60588;SDS011;46421;48.610;9.334;2023-07-20T03:02:05;3.80;;;1.27;;
60588;SDS011;46421;48.610;9.334;2023-07-20T03:04:34;5.07;;;1.50;;
60588;SDS011;46421;48.610;9.334;2023-07-20T03:06:59;4.30;;;1.37;;
60588;SDS011;46421;48.610;9.334;2023-07-20T03:09:25;6.43;;;1.47;;
60588;SDS011;46421;48.610;9.334;2023-07-20T03:11:50;2.83;;;1.20;;
60588;SDS011;46421;48.610;9.334;2023-07-20T03:14:15;3.58;;;1.50;;
60588;SDS011;46421;48.610;9.334;2023-07-20T03:16:40;5.87;;;1.50;;
60588;SDS011;46421;48.610;9.334;2023-07-20T03:19:06;3.83;;;1.53;;
60588;SDS011;46421;48.610;9.334;2023-07-20T03:21:31;4.50;;;1.33;;
60588;SDS011;46421;48.610;9.334;2023-07-20T03:23:56;3.97;;;1.30;;
60588;SDS011;46421;48.610;9.334;2023-07-20T03:26:21;3.88;;;1.30;;
60588;SDS011;46421;48.610;9.334;2023-07-20T03:28:47;4.20;;;1.40;;
60588;SDS011;46421;48.610;9.334;2023-07-20T03:31:12;3.90;;;1.40;;
60588;SDS011;46421;48.610;9.334;2023-07-20T03:33:37;6.17;;;1.30;;
60588;SDS011;46421;48.610;9.334;2023-07-20T03:36:02;4.20;;;1.20;;
60588;SDS011;46421;48.610;9.334;2023-07-20T03:38:28;6.05;;;1.65;;
60588;SDS011;46421;48.610;9.334;2023-07-20T03:40:54;4.60;;;1.40;;
60588;SDS011;46421;48.610;9.334;2023-07-20T03:43:20;4.13;;;1.35;;
60588;SDS011;46421;48.610;9.334;2023-07-20T03:45:45;3.92;;;1.65;;
60588;SDS011;46421;48.610;9.334;2023-07-20T03:48:12;4.60;;;1.70;;
60588;SDS011;46421;48.610;9.334;2023-07-20T03:50:38;3.45;;;1.40;;
60588;SDS011;46421;48.610;9.334;2023-07-20T03:53:03;6.10;;;1.48;;
60588;SDS011;46421;48.610;9.334;2023-07-20T03:55:28;4.03;;;1.47;;
60588;SDS011;46421;48.610;9.334;2023-07-20T03:57:54;4.40;;;1.60;;
60588;SDS011;46421;48.610;9.334;2023-07-20T04:00:19;4.68;;;1.42;;
60588;SDS011;46421;48.610;9.334;2023-07-20T04:02:44;2.85;;;1.20;;
60588;SDS011;46421;48.610;9.334;2023-07-20T04:05:10;3.53;;;1.40;;
60588;SDS011;46421;48.610;9.334;2023-07-20T04:07:35;6.00;;;1.30;;
60588;SDS011;46421;48.610;9.334;2023-07-20T04:10:00;5.10;;;1.53;;
60588;SDS011;46421;48.610;9.334;2023-07-20T04:12:25;3.30;;;1.37;;
60588;SDS011;46421;48.610;9.334;2023-07-20T04:14:51;3.33;;;1.40;;
60588;SDS011;46421;48.610;9.334;2023-07-20T04:17:16;3.50;;;1.40;;
60588;SDS011;46421;48.610;9.334;2023-07-20T04:19:42;5.03;;;1.50;;
60588;SDS011;46421;48.610;9.334;2023-07-20T04:22:07;3.28;;;1.25;;
60588;SDS011;46421;48.610;9.334;2023-07-20T04:24:32;6.27;;;1.67;;
60588;SDS011;46421;48.610;9.334;2023-07-20T04:26:58;4.20;;;1.50;;
60588;SDS011;46421;48.610;9.334;2023-07-20T04:29:23;3.43;;;1.20;;
60588;SDS011;46421;48.610;9.334;2023-07-20T04:31:48;4.07;;;1.57;;
60588;SDS011;46421;48.610;9.334;2023-07-20T04:34:13;4.13;;;1.30;;
60588;SDS011;46421;48.610;9.334;2023-07-20T04:36:38;3.77;;;1.37;;
60588;SDS011;46421;48.610;9.334;2023-07-20T04:39:04;4.17;;;1.67;;
60588;SDS011;46421;48.610;9.334;2023-07-20T04:41:29;6.55;;;1.50;;
60588;SDS011;46421;48.610;9.334;2023-07-20T04:43:55;3.27;;;1.20;;
60588;SDS011;46421;48.610;9.334;2023-07-20T04:46:20;4.50;;;1.60;;
60588;SDS011;46421;48.610;9.334;2023-07-20T04:48:46;4.82;;;1.42;;
60588;SDS011;46421;48.610;9.334;2023-07-20T04:51:12;4.30;;;1.70;;
60588;SDS011;46421;48.610;9.334;2023-07-20T04:53:38;6.03;;;1.87;;
60588;SDS011;46421;48.610;9.334;2023-07-20T04:56:03;3.23;;;1.23;;
60588;SDS011;46421;48.610;9.334;2023-07-20T04:58:28;4.13;;;1.30;;
60588;SDS011;46421;48.610;9.334;2023-07-20T05:00:53;3.73;;;1.50;;
60588;SDS011;46421;48.610;9.334;2023-07-20T05:03:19;2.87;;;1.10;;
60588;SDS011;46421;48.610;9.334;2023-07-20T05:05:44;4.88;;;1.13;;
60588;SDS011;46421;48.610;9.334;2023-07-20T05:08:09;4.93;;;1.40;;
60588;SDS011;46421;48.610;9.334;2023-07-20T05:10:34;3.83;;;1.23;;
60588;SDS011;46421;48.610;9.334;2023-07-20T05:13:00;3.47;;;1.13;;
60588;SDS011;46421;48.610;9.334;2023-07-20T05:15:25;4.83;;;1.53;;
60588;SDS011;46421;48.610;9.334;2023-07-20T05:17:50;4.00;;;1.30;;
60588;SDS011;46421;48.610;9.334;2023-07-20T05:20:15;3.57;;;1.30;;
60588;SDS011;46421;48.610;9.334;2023-07-20T05:22:41;4.05;;;1.50;;
60588;SDS011;46421;48.610;9.334;2023-07-20T05:25:07;3.70;;;1.27;;
60588;SDS011;46421;48.610;9.334;2023-07-20T05:27:33;4.20;;;1.42;;
60588;SDS011;46421;48.610;9.334;2023-07-20T05:29:59;3.58;;;1.65;;
60588;SDS011;46421;48.610;9.334;2023-07-20T05:32:24;4.77;;;1.40;;
60588;SDS011;46421;48.610;9.334;2023-07-20T05:34:51;4.63;;;1.33;;
60588;SDS011;46421;48.610;9.334;2023-07-20T05:37:16;3.92;;;1.42;;
60588;SDS011;46421;48.610;9.334;2023-07-20T05:39:41;4.43;;;1.40;;
60588;SDS011;46421;48.610;9.334;2023-07-20T05:42:07;5.67;;;1.53;;
60588;SDS011;46421;48.610;9.334;2023-07-20T05:44:32;5.40;;;1.50;;
60588;SDS011;46421;48.610;9.334;2023-07-20T05:46:57;3.57;;;1.13;;
60588;SDS011;46421;48.610;9.334;2023-07-20T05:49:22;3.03;;;1.20;;
60588;SDS011;46421;48.610;9.334;2023-07-20T05:51:48;6.10;;;1.40;;
60588;SDS011;46421;48.610;9.334;2023-07-20T05:54:13;4.43;;;1.42;;
60588;SDS011;46421;48.610;9.334;2023-07-20T05:56:38;3.47;;;1.20;;
60588;SDS011;46421;48.610;9.334;2023-07-20T05:59:04;3.70;;;1.27;;
60588;SDS011;46421;48.610;9.334;2023-07-20T06:01:29;6.13;;;1.90;;
60588;SDS011;46421;48.610;9.334;2023-07-20T06:03:54;4.50;;;1.13;;
60588;SDS011;46421;48.610;9.334;2023-07-20T06:06:19;4.90;;;1.30;;
60588;SDS011;46421;48.610;9.334;2023-07-20T06:08:44;3.60;;;1.23;;
60588;SDS011;46421;48.610;9.334;2023-07-20T06:11:10;5.47;;;1.38;;
60588;SDS011;46421;48.610;9.334;2023-07-20T06:13:36;5.00;;;1.70;;
60588;SDS011;46421;48.610;9.334;2023-07-20T06:16:01;7.20;;;1.63;;
60588;SDS011;46421;48.610;9.334;2023-07-20T06:18:26;4.45;;;1.45;;
60588;SDS011;46421;48.610;9.334;2023-07-20T06:20:52;4.68;;;1.67;;
60588;SDS011;46421;48.610;9.334;2023-07-20T06:23:18;3.10;;;1.20;;
60588;SDS011;46421;48.610;9.334;2023-07-20T06:25:43;4.85;;;1.35;;
60588;SDS011;46421;48.610;9.334;2023-07-20T06:28:09;6.60;;;1.30;;
60588;SDS011;46421;48.610;9.334;2023-07-20T06:30:34;3.80;;;1.50;;
60588;SDS011;46421;48.610;9.334;2023-07-20T06:32:59;4.93;;;1.52;;
60588;SDS011;46421;48.610;9.334;2023-07-20T06:35:25;4.63;;;1.10;;
60588;SDS011;46421;48.610;9.334;2023-07-20T06:37:50;4.97;;;1.37;;
60588;SDS011;46421;48.610;9.334;2023-07-20T06:40:15;4.93;;;1.20;;
60588;SDS011;46421;48.610;9.334;2023-07-20T06:42:40;5.23;;;1.33;;
60588;SDS011;46421;48.610;9.334;2023-07-20T06:45:06;3.30;;;1.38;;
60588;SDS011;46421;48.610;9.334;2023-07-20T06:47:31;3.70;;;1.15;;
60588;SDS011;46421;48.610;9.334;2023-07-20T06:49:57;4.40;;;1.60;;
60588;SDS011;46421;48.610;9.334;2023-07-20T06:52:22;3.33;;;1.30;;
60588;SDS011;46421;48.610;9.334;2023-07-20T06:54:47;6.75;;;1.58;;
60588;SDS011;46421;48.610;9.334;2023-07-20T06:57:12;4.00;;;1.20;;
60588;SDS011;46421;48.610;9.334;2023-07-20T06:59:38;4.83;;;1.63;;
60588;SDS011;46421;48.610;9.334;2023-07-20T07:02:03;3.00;;;1.20;;
60588;SDS011;46421;48.610;9.334;2023-07-20T07:04:28;4.85;;;1.10;;
60588;SDS011;46421;48.610;9.334;2023-07-20T07:06:54;2.95;;;1.20;;
60588;SDS011;46421;48.610;9.334;2023-07-20T07:09:19;3.57;;;1.20;;
60588;SDS011;46421;48.610;9.334;2023-07-20T07:14:11;3.93;;;1.37;;
60588;SDS011;46421;48.610;9.334;2023-07-20T07:16:36;4.57;;;1.13;;
60588;SDS011;46421;48.610;9.334;2023-07-20T07:19:02;3.83;;;1.25;;
60588;SDS011;46421;48.610;9.334;2023-07-20T07:21:28;3.42;;;1.17;;
60588;SDS011;46421;48.610;9.334;2023-07-20T07:23:54;4.13;;;1.05;;
60588;SDS011;46421;48.610;9.334;2023-07-20T07:26:22;3.53;;;1.20;;
60588;SDS011;46421;48.610;9.334;2023-07-20T07:28:47;2.97;;;1.17;;
60588;SDS011;46421;48.610;9.334;2023-07-20T07:31:12;3.33;;;1.27;;
60588;SDS011;46421;48.610;9.334;2023-07-20T07:33:37;4.17;;;1.30;;
60588;SDS011;46421;48.610;9.334;2023-07-20T07:36:03;7.60;;;1.57;;
60588;SDS011;46421;48.610;9.334;2023-07-20T07:38:28;4.47;;;1.33;;
60588;SDS011;46421;48.610;9.334;2023-07-20T07:40:54;3.65;;;1.10;;
60588;SDS011;46421;48.610;9.334;2023-07-20T07:43:19;5.93;;;1.43;;
60588;SDS011;46421;48.610;9.334;2023-07-20T07:45:44;5.57;;;1.50;;
60588;SDS011;46421;48.610;9.334;2023-07-20T07:48:09;3.30;;;1.20;;
60588;SDS011;46421;48.610;9.334;2023-07-20T07:50:37;4.55;;;1.40;;
60588;SDS011;46421;48.610;9.334;2023-07-20T07:53:03;4.10;;;1.48;;
60588;SDS011;46421;48.610;9.334;2023-07-20T07:55:28;3.10;;;1.30;;
60588;SDS011;46421;48.610;9.334;2023-07-20T07:57:53;6.60;;;1.80;;
60588;SDS011;46421;48.610;9.334;2023-07-20T08:00:19;6.75;;;1.60;;
60588;SDS011;46421;48.610;9.334;2023-07-20T08:02:45;4.83;;;1.50;;
60588;SDS011;46421;48.610;9.334;2023-07-20T08:05:11;5.03;;;1.50;;
60588;SDS011;46421;48.610;9.334;2023-07-20T08:07:37;3.58;;;1.60;;
60588;SDS011;46421;48.610;9.334;2023-07-20T08:10:02;4.87;;;2.03;;
60588;SDS011;46421;48.610;9.334;2023-07-20T08:14:53;3.53;;;1.38;;
60588;SDS011;46421;48.610;9.334;2023-07-20T08:19:45;3.65;;;1.58;;
60588;SDS011;46421;48.610;9.334;2023-07-20T08:22:10;5.15;;;1.55;;
60588;SDS011;46421;48.610;9.334;2023-07-20T08:27:00;5.22;;;1.70;;
60588;SDS011;46421;48.610;9.334;2023-07-20T08:31:51;4.22;;;2.28;;
60588;SDS011;46421;48.610;9.334;2023-07-20T08:36:41;4.40;;;1.80;;
60588;SDS011;46421;48.610;9.334;2023-07-20T08:39:07;3.70;;;1.60;;
60588;SDS011;46421;48.610;9.334;2023-07-20T08:43:58;3.13;;;1.50;;
60588;SDS011;46421;48.610;9.334;2023-07-20T08:46:23;4.72;;;1.50;;
60588;SDS011;46421;48.610;9.334;2023-07-20T08:48:49;4.15;;;1.73;;
60588;SDS011;46421;48.610;9.334;2023-07-20T08:51:15;3.03;;;1.52;;
60588;SDS011;46421;48.610;9.334;2023-07-20T08:56:06;3.45;;;1.60;;
60588;SDS011;46421;48.610;9.334;2023-07-20T09:00:56;2.80;;;1.42;;
60588;SDS011;46421;48.610;9.334;2023-07-20T09:03:24;3.95;;;1.50;;
60588;SDS011;46421;48.610;9.334;2023-07-20T09:08:15;3.23;;;1.60;;
60588;SDS011;46421;48.610;9.334;2023-07-20T09:13:06;4.82;;;1.70;;
60588;SDS011;46421;48.610;9.334;2023-07-20T09:15:31;4.25;;;2.15;;
60588;SDS011;46421;48.610;9.334;2023-07-20T09:20:22;4.43;;;1.40;;
60588;SDS011;46421;48.610;9.334;2023-07-20T09:22:47;5.28;;;2.10;;
60588;SDS011;46421;48.610;9.334;2023-07-20T09:27:39;5.00;;;1.60;;
60588;SDS011;46421;48.610;9.334;2023-07-20T09:30:05;3.63;;;1.65;;
60588;SDS011;46421;48.610;9.334;2023-07-20T09:32:32;4.45;;;1.92;;
60588;SDS011;46421;48.610;9.334;2023-07-20T09:35:02;6.20;;;1.83;;
60588;SDS011;46421;48.610;9.334;2023-07-20T09:37:28;5.03;;;1.70;;
60588;SDS011;46421;48.610;9.334;2023-07-20T09:39:53;3.40;;;1.63;;
60588;SDS011;46421;48.610;9.334;2023-07-20T09:42:19;4.13;;;1.70;;
60588;SDS011;46421;48.610;9.334;2023-07-20T09:44:45;4.07;;;1.30;;
60588;SDS011;46421;48.610;9.334;2023-07-20T09:49:39;3.83;;;1.80;;
60588;SDS011;46421;48.610;9.334;2023-07-20T09:52:05;3.40;;;1.63;;
60588;SDS011;46421;48.610;9.334;2023-07-20T09:56:57;5.32;;;2.00;;
60588;SDS011;46421;48.610;9.334;2023-07-20T10:01:48;3.92;;;1.85;;
60588;SDS011;46421;48.610;9.334;2023-07-20T10:04:14;5.22;;;1.90;;
60588;SDS011;46421;48.610;9.334;2023-07-20T10:06:41;3.90;;;1.70;;
60588;SDS011;46421;48.610;9.334;2023-07-20T10:09:07;5.40;;;2.17;;
60588;SDS011;46421;48.610;9.334;2023-07-20T10:11:34;4.35;;;1.85;;
60588;SDS011;46421;48.610;9.334;2023-07-20T10:14:00;4.82;;;1.92;;
60588;SDS011;46421;48.610;9.334;2023-07-20T10:16:29;3.28;;;1.98;;
60588;SDS011;46421;48.610;9.334;2023-07-20T10:19:07;2.85;;;1.65;;
60588;SDS011;46421;48.610;9.334;2023-07-20T10:21:33;4.15;;;1.73;;
60588;SDS011;46421;48.610;9.334;2023-07-20T10:24:00;3.80;;;2.03;;
60588;SDS011;46421;48.610;9.334;2023-07-20T10:26:26;3.72;;;1.50;;
60588;SDS011;46421;48.610;9.334;2023-07-20T10:28:51;3.25;;;1.52;;
60588;SDS011;46421;48.610;9.334;2023-07-20T10:31:17;3.85;;;1.80;;
60588;SDS011;46421;48.610;9.334;2023-07-20T10:33:42;4.80;;;1.45;;
60588;SDS011;46421;48.610;9.334;2023-07-20T10:36:09;3.03;;;1.50;;
60588;SDS011;46421;48.610;9.334;2023-07-20T10:38:40;2.95;;;1.52;;
60588;SDS011;46421;48.610;9.334;2023-07-20T10:41:16;3.53;;;1.38;;
60588;SDS011;46421;48.610;9.334;2023-07-20T10:43:42;5.05;;;1.52;;
60588;SDS011;46421;48.610;9.334;2023-07-20T10:46:07;3.35;;;1.50;;
60588;SDS011;46421;48.610;9.334;2023-07-20T10:48:35;3.78;;;1.50;;
60588;SDS011;46421;48.610;9.334;2023-07-20T10:51:20;3.80;;;1.40;;
60588;SDS011;46421;48.610;9.334;2023-07-20T10:53:48;3.17;;;1.20;;
60588;SDS011;46421;48.610;9.334;2023-07-20T10:56:15;3.05;;;1.30;;
60588;SDS011;46421;48.610;9.334;2023-07-20T10:58:40;3.70;;;1.35;;
60588;SDS011;46421;48.610;9.334;2023-07-20T11:01:10;3.35;;;1.10;;
60588;SDS011;46421;48.610;9.334;2023-07-20T11:03:38;2.20;;;1.00;;
60588;SDS011;46421;48.610;9.334;2023-07-20T11:08:42;3.58;;;1.20;;
60588;SDS011;46421;48.610;9.334;2023-07-20T11:11:27;3.28;;;1.30;;
60588;SDS011;46421;48.610;9.334;2023-07-20T11:16:34;4.28;;;1.35;;
60588;SDS011;46421;48.610;9.334;2023-07-20T11:19:00;2.92;;;1.15;;
60588;SDS011;46421;48.610;9.334;2023-07-20T11:23:52;4.40;;;1.30;;
60588;SDS011;46421;48.610;9.334;2023-07-20T11:26:17;4.32;;;1.50;;
60588;SDS011;46421;48.610;9.334;2023-07-20T11:28:48;3.45;;;1.63;;
60588;SDS011;46421;48.610;9.334;2023-07-20T11:31:14;3.30;;;1.23;;
60588;SDS011;46421;48.610;9.334;2023-07-20T11:33:41;3.35;;;1.40;;
60588;SDS011;46421;48.610;9.334;2023-07-20T11:36:07;6.07;;;1.60;;
60588;SDS011;46421;48.610;9.334;2023-07-20T11:38:33;3.05;;;1.40;;
60588;SDS011;46421;48.610;9.334;2023-07-20T11:40:58;3.53;;;1.70;;
60588;SDS011;46421;48.610;9.334;2023-07-20T11:43:23;3.60;;;1.30;;
60588;SDS011;46421;48.610;9.334;2023-07-20T11:45:49;5.68;;;1.23;;
60588;SDS011;46421;48.610;9.334;2023-07-20T11:50:39;3.78;;;1.38;;
60588;SDS011;46421;48.610;9.334;2023-07-20T11:55:30;4.10;;;1.15;;
60588;SDS011;46421;48.610;9.334;2023-07-20T11:58:06;3.63;;;1.10;;
60588;SDS011;46421;48.610;9.334;2023-07-20T12:00:35;2.83;;;1.23;;
60588;SDS011;46421;48.610;9.334;2023-07-20T12:03:00;2.85;;;1.20;;
60588;SDS011;46421;48.610;9.334;2023-07-20T12:05:26;2.80;;;1.10;;
60588;SDS011;46421;48.610;9.334;2023-07-20T12:07:51;4.27;;;1.30;;
60588;SDS011;46421;48.610;9.334;2023-07-20T12:10:22;8.32;;;1.45;;
60588;SDS011;46421;48.610;9.334;2023-07-20T12:12:48;3.33;;;1.17;;
60588;SDS011;46421;48.610;9.334;2023-07-20T12:20:04;3.13;;;1.17;;
60588;SDS011;46421;48.610;9.334;2023-07-20T12:22:30;3.67;;;1.23;;
60588;SDS011;46421;48.610;9.334;2023-07-20T12:24:56;2.60;;;1.20;;
60588;SDS011;46421;48.610;9.334;2023-07-20T12:29:46;2.33;;;1.17;;
60588;SDS011;46421;48.610;9.334;2023-07-20T12:32:11;2.70;;;1.47;;
60588;SDS011;46421;48.610;9.334;2023-07-20T12:34:37;4.07;;;1.30;;
60588;SDS011;46421;48.610;9.334;2023-07-20T12:37:04;3.20;;;1.50;;
60588;SDS011;46421;48.610;9.334;2023-07-20T12:39:29;2.58;;;1.50;;
60588;SDS011;46421;48.610;9.334;2023-07-20T12:41:55;3.03;;;1.50;;
60588;SDS011;46421;48.610;9.334;2023-07-20T12:44:20;3.60;;;1.73;;
60588;SDS011;46421;48.610;9.334;2023-07-20T12:46:45;3.43;;;1.70;;
60588;SDS011;46421;48.610;9.334;2023-07-20T12:49:10;3.60;;;1.30;;
60588;SDS011;46421;48.610;9.334;2023-07-20T12:51:35;3.20;;;1.20;;
60588;SDS011;46421;48.610;9.334;2023-07-20T12:54:01;3.60;;;1.57;;
60588;SDS011;46421;48.610;9.334;2023-07-20T12:56:26;4.43;;;1.57;;
60588;SDS011;46421;48.610;9.334;2023-07-20T12:58:51;2.40;;;1.23;;
60588;SDS011;46421;48.610;9.334;2023-07-20T13:01:16;3.57;;;1.30;;
60588;SDS011;46421;48.610;9.334;2023-07-20T13:06:07;3.88;;;1.10;;
60588;SDS011;46421;48.610;9.334;2023-07-20T13:10:57;2.50;;;1.30;;
60588;SDS011;46421;48.610;9.334;2023-07-20T13:15:47;4.82;;;1.42;;
60588;SDS011;46421;48.610;9.334;2023-07-20T13:18:13;5.03;;;1.40;;
60588;SDS011;46421;48.610;9.334;2023-07-20T13:20:39;3.40;;;1.67;;
60588;SDS011;46421;48.610;9.334;2023-07-20T13:25:29;2.60;;;1.33;;
60588;SDS011;46421;48.610;9.334;2023-07-20T13:30:20;3.88;;;1.10;;
60588;SDS011;46421;48.610;9.334;2023-07-20T13:32:46;3.20;;;1.25;;
60588;SDS011;46421;48.610;9.334;2023-07-20T13:35:12;2.90;;;1.27;;
60588;SDS011;46421;48.610;9.334;2023-07-20T13:40:02;3.50;;;1.27;;
60588;SDS011;46421;48.610;9.334;2023-07-20T13:42:30;2.75;;;0.90;;
60588;SDS011;46421;48.610;9.334;2023-07-20T13:47:20;3.70;;;1.27;;
60588;SDS011;46421;48.610;9.334;2023-07-20T13:52:11;4.10;;;1.48;;
60588;SDS011;46421;48.610;9.334;2023-07-20T13:57:01;2.70;;;1.13;;
60588;SDS011;46421;48.610;9.334;2023-07-20T14:01:52;2.67;;;1.13;;
60588;SDS011;46421;48.610;9.334;2023-07-20T14:06:43;2.95;;;1.20;;
60588;SDS011;46421;48.610;9.334;2023-07-20T14:11:34;2.97;;;1.08;;
60588;SDS011;46421;48.610;9.334;2023-07-20T14:16:24;2.30;;;1.00;;
60588;SDS011;46421;48.610;9.334;2023-07-20T14:21:15;3.58;;;1.20;;
60588;SDS011;46421;48.610;9.334;2023-07-20T14:26:06;2.90;;;1.33;;
60588;SDS011;46421;48.610;9.334;2023-07-20T14:28:32;2.53;;;1.17;;
60588;SDS011;46421;48.610;9.334;2023-07-20T14:33:22;2.53;;;1.10;;
60588;SDS011;46421;48.610;9.334;2023-07-20T14:38:13;4.30;;;1.23;;
60588;SDS011;46421;48.610;9.334;2023-07-20T14:43:04;2.67;;;1.10;;
60588;SDS011;46421;48.610;9.334;2023-07-20T14:45:29;4.20;;;1.23;;
60588;SDS011;46421;48.610;9.334;2023-07-20T14:50:19;2.90;;;1.02;;
60588;SDS011;46421;48.610;9.334;2023-07-20T14:55:10;3.08;;;1.20;;
60588;SDS011;46421;48.610;9.334;2023-07-20T15:00:00;3.17;;;1.20;;
60588;SDS011;46421;48.610;9.334;2023-07-20T15:02:26;2.67;;;1.10;;
60588;SDS011;46421;48.610;9.334;2023-07-20T15:04:52;4.28;;;1.10;;
60588;SDS011;46421;48.610;9.334;2023-07-20T15:09:43;3.75;;;1.30;;
60588;SDS011;46421;48.610;9.334;2023-07-20T15:12:09;2.72;;;1.10;;
60588;SDS011;46421;48.610;9.334;2023-07-20T15:14:34;2.88;;;1.13;;
60588;SDS011;46421;48.610;9.334;2023-07-20T15:17:00;3.38;;;1.30;;
60588;SDS011;46421;48.610;9.334;2023-07-20T15:19:25;3.15;;;1.13;;
60588;SDS011;46421;48.610;9.334;2023-07-20T15:21:50;2.53;;;1.30;;
60588;SDS011;46421;48.610;9.334;2023-07-20T15:24:15;1.87;;;0.90;;
60588;SDS011;46421;48.610;9.334;2023-07-20T15:26:41;3.07;;;1.20;;
60588;SDS011;46421;48.610;9.334;2023-07-20T15:29:06;5.43;;;1.20;;
60588;SDS011;46421;48.610;9.334;2023-07-20T15:31:31;3.17;;;1.25;;
60588;SDS011;46421;48.610;9.334;2023-07-20T15:33:57;3.40;;;1.13;;
60588;SDS011;46421;48.610;9.334;2023-07-20T15:36:22;2.97;;;0.97;;
60588;SDS011;46421;48.610;9.334;2023-07-20T15:38:47;3.10;;;0.97;;
60588;SDS011;46421;48.610;9.334;2023-07-20T15:41:12;3.03;;;1.30;;
60588;SDS011;46421;48.610;9.334;2023-07-20T15:43:38;2.90;;;1.02;;
60588;SDS011;46421;48.610;9.334;2023-07-20T15:47:04;2.47;;;0.93;;
60588;SDS011;46421;48.610;9.334;2023-07-20T15:48:58;4.18;;;1.10;;
60588;SDS011;46421;48.610;9.334;2023-07-20T15:51:23;2.80;;;1.00;;
60588;SDS011;46421;48.610;9.334;2023-07-20T15:53:48;3.87;;;1.43;;
60588;SDS011;46421;48.610;9.334;2023-07-20T15:56:14;3.77;;;1.10;;
60588;SDS011;46421;48.610;9.334;2023-07-20T15:58:39;2.93;;;1.10;;
60588;SDS011;46421;48.610;9.334;2023-07-20T16:01:04;2.30;;;0.90;;
60588;SDS011;46421;48.610;9.334;2023-07-20T16:03:30;3.92;;;1.30;;
60588;SDS011;46421;48.610;9.334;2023-07-20T16:05:56;2.08;;;0.90;;
60588;SDS011;46421;48.610;9.334;2023-07-20T16:08:21;3.00;;;1.25;;
60588;SDS011;46421;48.610;9.334;2023-07-20T16:10:46;2.60;;;1.00;;
60588;SDS011;46421;48.610;9.334;2023-07-20T16:13:11;3.57;;;1.10;;
60588;SDS011;46421;48.610;9.334;2023-07-20T16:15:37;2.33;;;0.80;;
60588;SDS011;46421;48.610;9.334;2023-07-20T16:18:02;3.43;;;1.10;;
60588;SDS011;46421;48.610;9.334;2023-07-20T16:20:27;3.90;;;1.10;;
60588;SDS011;46421;48.610;9.334;2023-07-20T16:22:53;2.47;;;0.93;;
60588;SDS011;46421;48.610;9.334;2023-07-20T16:25:18;3.57;;;0.80;;
60588;SDS011;46421;48.610;9.334;2023-07-20T16:27:43;2.63;;;0.95;;
60588;SDS011;46421;48.610;9.334;2023-07-20T16:30:08;2.90;;;1.10;;
60588;SDS011;46421;48.610;9.334;2023-07-20T16:32:34;3.85;;;1.00;;
60588;SDS011;46421;48.610;9.334;2023-07-20T16:34:59;3.22;;;1.10;;
60588;SDS011;46421;48.610;9.334;2023-07-20T16:37:25;4.18;;;1.33;;
60588;SDS011;46421;48.610;9.334;2023-07-20T16:39:51;3.17;;;1.10;;